Карточка аэропорта URWA

Внимание!
Информация на этой странице в стадии наполнения.
Если вы не увидели какой-то информации, или заметили неточность - пожалуйста сообщите нам!
Спасибо!
Команда RU-STAFF
Название аэропортаАстрахань
Название аэропорта (англ.)Astrakhan
Превышение-65 ft. (-19.8 m.)
Координаты46°16.998', 48°0.38399999999996'
Высота перехода3000 ft
Эшелон переходаFL50
Коды ответчика1010-1017
Зона ОрВДРостов-на-Дону РПИ (URRV)
Данные METARURWA 200100Z 24005MPS CAVOK 28/15 Q1003 R27/010070 NOSIG RMK QFE754/1005
Проноз погоды (TAF)URWA 192300Z 2000/2009 26003G12MPS 9999 SCT030CB TEMPO 2003/2009 29007G14MPS PROB40 TEMPO 2006/2009 VRB20MPS 3000 -TSRA SQ
NOTAMshow/hide NOTAM
AWOS   TABLE

Информация о ВПП

ВПП Длина ВПП (м.) Покрытие Курс ВПП Частота ILS
093200Асфальтобетон89110.3
111950Трава113 
273200Асфальтобетон269110.5
291950Трава293 

Диспетчерские позиции

Позывной Наименование органа УВД Частота
URWA_TWRАстрахань-Вышка118.6
URWA_R_APPАстрахань-Круг120.6
URWA_APPАстрахань-Подход126.0



Спутниковое изображение